Time;durP1;ratioP1;P1;durP2;ratioP2;P2;SDS_P1;SDS_P2;PMS_P1;PMS_P2;Temp;Humidity;BMP_temperature;BMP_pressure;BME280_temperature;BME280_humidity;BME280_pressure;Samples;Min_cycle;Max_cycle;Signal;HPM_P1;HPM_P2
2023/03/20 00:00:35;;;;;;;15.18;7.25;;;7.10;99.90;;;;;;5019683;28;20045;-70
2023/03/20 00:03:01;;;;;;;13.68;6.40;;;7.10;99.90;;;;;;5022277;28;20059;-71
2023/03/20 00:05:29;;;;;;;18.52;6.90;;;7.10;99.90;;;;;;5024920;28;20048;-70
2023/03/20 00:07:56;;;;;;;14.27;6.60;;;7.00;99.90;;;;;;5019319;28;20045;-70
2023/03/20 00:10:27;;;;;;;17.77;6.10;;;7.10;99.90;;;;;;5020377;28;20052;-70
2023/03/20 00:12:53;;;;;;;15.85;6.28;;;7.10;99.90;;;;;;5019750;28;20050;-71
2023/03/20 00:15:32;;;;;;;14.18;6.85;;;7.20;99.90;;;;;;5022940;28;20076;-68
2023/03/20 00:17:58;;;;;;;12.02;5.65;;;7.20;99.90;;;;;;5020680;28;20038;-70
2023/03/20 00:20:24;;;;;;;13.18;5.78;;;7.20;99.90;;;;;;5020384;28;20058;-69
2023/03/20 00:22:50;;;;;;;13.18;6.55;;;7.20;99.90;;;;;;5015866;28;20070;-69
2023/03/20 00:25:18;;;;;;;16.05;6.82;;;7.20;99.90;;;;;;5020838;28;20152;-69
2023/03/20 00:27:44;;;;;;;16.90;6.18;;;7.30;99.90;;;;;;5022031;28;20053;-70
2023/03/20 00:30:21;;;;;;;16.58;5.63;;;7.20;99.90;;;;;;5021167;28;20041;-70
2023/03/20 00:32:47;;;;;;;18.85;6.25;;;7.30;99.90;;;;;;5025174;28;20127;-70
2023/03/20 00:35:26;;;;;;;16.17;6.78;;;7.20;99.90;;;;;;5025095;28;20052;-71
2023/03/20 00:37:52;;;;;;;17.67;6.25;;;7.20;99.90;;;;;;5018855;28;20067;-70
2023/03/20 00:40:19;;;;;;;17.45;5.80;;;7.30;99.90;;;;;;5018406;28;20064;-70
2023/03/20 00:42:51;;;;;;;15.70;5.57;;;7.20;99.90;;;;;;5019212;28;20053;-70
2023/03/20 00:45:19;;;;;;;20.17;6.35;;;7.30;99.90;;;;;;5015243;28;20129;-70
2023/03/20 00:47:48;;;;;;;15.73;6.30;;;7.40;99.90;;;;;;5010248;28;20049;-70
2023/03/20 00:50:16;;;;;;;17.15;6.82;;;7.40;99.90;;;;;;5014837;28;20513;-70
2023/03/20 00:52:43;;;;;;;16.63;6.78;;;7.40;99.90;;;;;;5002313;28;20046;-70
2023/03/20 00:55:09;;;;;;;18.50;6.40;;;7.30;99.90;;;;;;4946398;28;21135;-71
2023/03/20 00:57:43;;;;;;;24.38;5.35;;;7.50;99.90;;;;;;5018879;28;20052;-71
2023/03/20 01:00:32;;;;;;;16.42;6.25;;;7.40;99.90;;;;;;5026738;28;20622;-71
2023/03/20 01:02:57;;;;;;;15.40;6.68;;;7.40;99.90;;;;;;5039954;28;20052;-70
2023/03/20 01:05:25;;;;;;;21.60;6.35;;;7.30;99.90;;;;;;5025430;28;20037;-70
2023/03/20 01:07:50;;;;;;;21.88;7.60;;;7.50;99.90;;;;;;5019598;28;20033;-70
2023/03/20 01:10:17;;;;;;;15.35;6.15;;;7.50;99.90;;;;;;5041099;28;20110;-70
2023/03/20 01:12:43;;;;;;;15.77;6.28;;;7.40;99.90;;;;;;5024566;28;20037;-70
2023/03/20 01:15:17;;;;;;;18.77;6.07;;;7.40;99.90;;;;;;5020780;28;21473;-71
2023/03/20 01:17:43;;;;;;;17.98;6.45;;;7.40;99.90;;;;;;5039185;28;20053;-70
2023/03/20 01:20:18;;;;;;;19.50;6.13;;;7.40;99.90;;;;;;5041243;28;20045;-70
2023/03/20 01:22:44;;;;;;;21.33;6.60;;;7.40;99.90;;;;;;5020682;28;20072;-69
2023/03/20 01:25:10;;;;;;;15.85;6.28;;;7.50;99.90;;;;;;5024064;28;20048;-69
2023/03/20 01:27:36;;;;;;;20.40;6.22;;;7.40;99.90;;;;;;5020540;28;20515;-68
2023/03/20 01:30:03;;;;;;;15.07;6.57;;;7.50;99.90;;;;;;5025867;28;20127;-72
2023/03/20 01:32:28;;;;;;;15.75;6.68;;;7.40;99.90;;;;;;5012454;28;20053;-70
2023/03/20 01:34:54;;;;;;;19.13;6.97;;;7.40;99.90;;;;;;5035163;28;20414;-69
2023/03/20 01:37:27;;;;;;;21.42;6.78;;;7.50;99.90;;;;;;5039904;28;20049;-69
2023/03/20 01:39:54;;;;;;;18.45;8.38;;;7.40;99.90;;;;;;5020229;28;20175;-70
2023/03/20 01:42:20;;;;;;;19.73;7.28;;;7.40;99.90;;;;;;5019083;28;20072;-69
2023/03/20 01:44:46;;;;;;;17.15;7.57;;;7.60;99.90;;;;;;5015143;28;20113;-70
2023/03/20 01:47:18;;;;;;;20.40;7.60;;;7.50;99.90;;;;;;5039444;28;20167;-69
2023/03/20 01:50:22;;;;;;;15.10;6.53;;;7.40;99.90;;;;;;5042422;28;20452;-70
2023/03/20 01:52:51;;;;;;;19.65;7.35;;;7.60;99.90;;;;;;5043782;28;20077;-69
2023/03/20 01:55:18;;;;;;;15.68;7.22;;;7.50;99.90;;;;;;5042788;28;20087;-72
2023/03/20 01:57:47;;;;;;;22.10;7.88;;;7.50;99.90;;;;;;4957597;28;20056;-72
2023/03/20 02:00:15;;;;;;;19.27;8.48;;;7.60;99.90;;;;;;4984072;28;20041;-70
2023/03/20 02:02:44;;;;;;;17.10;7.38;;;7.50;99.90;;;;;;5025564;28;20045;-70
2023/03/20 02:05:12;;;;;;;22.50;8.82;;;7.40;99.90;;;;;;5040620;28;20032;-69
2023/03/20 02:07:38;;;;;;;21.40;8.43;;;7.50;99.90;;;;;;5023843;28;20045;-70
2023/03/20 02:10:08;;;;;;;21.40;8.77;;;7.50;99.90;;;;;;5035243;28;20041;-70
2023/03/20 02:12:35;;;;;;;19.40;8.75;;;7.60;99.90;;;;;;5034835;28;20045;-70
2023/03/20 02:15:02;;;;;;;18.60;8.70;;;7.50;99.90;;;;;;5022757;28;20037;-73
2023/03/20 02:17:27;;;;;;;20.75;8.60;;;7.50;99.90;;;;;;5035643;28;20048;-70
2023/03/20 02:20:09;;;;;;;19.27;9.57;;;7.60;99.90;;;;;;5042453;28;20041;-71
2023/03/20 02:23:10;;;;;;;21.17;8.15;;;7.50;99.90;;;;;;5003672;28;20068;-70
2023/03/20 02:26:04;;;;;;;14.48;7.32;;;7.50;99.90;;;;;;5038510;28;20090;-69
2023/03/20 02:28:48;;;;;;;18.92;6.82;;;7.50;99.90;;;;;;5036184;28;20098;-70
2023/03/20 02:31:58;;;;;;;17.55;7.05;;;7.50;99.90;;;;;;5024337;28;20045;-70
2023/03/20 02:34:38;;;;;;;18.42;7.25;;;7.70;99.90;;;;;;5044650;28;20607;-70
2023/03/20 02:37:29;;;;;;;18.75;6.97;;;7.60;99.90;;;;;;5016283;28;20500;-70
2023/03/20 02:40:21;;;;;;;19.10;7.03;;;7.60;99.90;;;;;;5012342;28;20049;-71
2023/03/20 02:43:09;;;;;;;14.03;5.80;;;7.60;99.90;;;;;;5036840;28;20051;-70
2023/03/20 02:45:51;;;;;;;15.00;6.72;;;7.60;99.90;;;;;;5036422;28;20359;-71
2023/03/20 02:48:25;;;;;;;18.10;5.93;;;7.60;99.90;;;;;;5038139;28;20076;-70
2023/03/20 02:51:16;;;;;;;11.00;5.22;;;7.60;99.90;;;;;;5039638;28;20492;-70
2023/03/20 02:53:59;;;;;;;12.38;5.28;;;7.70;99.90;;;;;;5018573;28;20630;-70
2023/03/20 02:56:47;;;;;;;12.30;5.53;;;7.80;99.90;;;;;;5019948;28;20099;-70
2023/03/20 02:59:28;;;;;;;11.52;5.90;;;7.70;99.90;;;;;;4967810;28;20073;-70
2023/03/20 03:02:08;;;;;;;19.33;6.32;;;7.70;99.90;;;;;;5016088;28;20065;-70
2023/03/20 03:04:38;;;;;;;14.65;5.65;;;7.70;99.90;;;;;;5017303;28;20413;-70
2023/03/20 03:07:06;;;;;;;14.75;5.97;;;7.80;99.90;;;;;;5016871;28;20049;-70
2023/03/20 03:09:45;;;;;;;12.35;6.00;;;7.80;99.90;;;;;;5023285;28;20053;-70
2023/03/20 03:12:14;;;;;;;9.68;6.13;;;7.80;99.90;;;;;;5021172;28;20053;-69
2023/03/20 03:14:47;;;;;;;21.90;8.00;;;7.70;99.90;;;;;;5019723;28;20068;-69
2023/03/20 03:17:15;;;;;;;16.13;7.65;;;7.80;99.90;;;;;;5013609;28;20067;-70
2023/03/20 03:19:46;;;;;;;13.52;5.57;;;7.80;99.90;;;;;;5023315;28;20045;-70
2023/03/20 03:22:14;;;;;;;11.60;6.07;;;7.90;99.90;;;;;;5014908;28;20386;-71
2023/03/20 03:24:48;;;;;;;12.02;6.18;;;7.80;99.90;;;;;;5019822;28;20057;-70
2023/03/20 03:27:24;;;;;;;17.33;6.45;;;7.80;99.90;;;;;;5018596;28;20038;-71
2023/03/20 03:30:04;;;;;;;11.82;6.65;;;7.80;99.90;;;;;;5024667;28;20117;-71
2023/03/20 03:32:47;;;;;;;13.05;7.20;;;7.80;99.90;;;;;;5017491;28;20047;-70
2023/03/20 03:35:18;;;;;;;17.23;6.95;;;7.80;99.90;;;;;;5020399;28;20064;-70
2023/03/20 03:38:11;;;;;;;18.75;7.88;;;7.70;99.90;;;;;;5018886;28;20120;-69
2023/03/20 03:40:42;;;;;;;15.85;7.82;;;7.80;99.90;;;;;;5026646;28;20124;-70
2023/03/20 03:43:38;;;;;;;18.48;8.60;;;7.80;99.90;;;;;;5020741;28;20064;-70
2023/03/20 03:46:12;;;;;;;17.90;8.52;;;7.80;99.90;;;;;;5021777;28;20037;-69
2023/03/20 03:48:44;;;;;;;18.52;9.38;;;7.80;99.90;;;;;;5021838;28;20042;-69
2023/03/20 03:51:16;;;;;;;18.90;9.82;;;7.70;99.90;;;;;;5024459;28;20195;-70
2023/03/20 03:53:48;;;;;;;19.10;9.07;;;7.80;99.90;;;;;;5016143;28;20065;-70
2023/03/20 03:56:18;;;;;;;19.77;9.15;;;7.70;99.90;;;;;;5026051;28;20128;-69
2023/03/20 03:58:51;;;;;;;16.98;8.75;;;7.80;99.90;;;;;;5016229;28;20041;-74
2023/03/20 04:01:19;;;;;;;21.60;11.18;;;7.70;99.90;;;;;;5016845;28;20070;-70
2023/03/20 04:03:57;;;;;;;20.77;10.48;;;7.70;99.90;;;;;;5008183;28;20583;-70
2023/03/20 04:06:25;;;;;;;22.02;11.10;;;7.70;99.90;;;;;;5041322;28;20474;-70
2023/03/20 04:08:51;;;;;;;25.50;12.20;;;7.70;99.90;;;;;;5040285;28;20052;-69
2023/03/20 04:11:20;;;;;;;23.02;10.65;;;7.70;99.90;;;;;;5044874;28;20049;-70
2023/03/20 04:13:48;;;;;;;19.67;11.85;;;7.70;99.90;;;;;;5044319;28;20639;-69
2023/03/20 04:16:15;;;;;;;21.80;9.80;;;7.70;99.90;;;;;;5044182;28;20507;-69
2023/03/20 04:18:41;;;;;;;26.13;12.60;;;7.70;99.90;;;;;;5037047;28;20091;-70
2023/03/20 04:21:07;;;;;;;23.92;11.77;;;7.70;99.90;;;;;;5039979;28;20041;-69
2023/03/20 04:23:33;;;;;;;22.58;11.38;;;7.70;99.90;;;;;;5019036;28;20140;-71
2023/03/20 04:25:59;;;;;;;24.00;11.13;;;7.60;99.90;;;;;;5045986;28;20120;-69
2023/03/20 04:28:25;;;;;;;22.05;11.38;;;7.70;99.90;;;;;;5027793;28;20033;-70
2023/03/20 04:30:55;;;;;;;20.70;10.65;;;7.70;99.90;;;;;;5028812;28;20083;-71
2023/03/20 04:33:22;;;;;;;24.60;12.23;;;7.60;99.90;;;;;;5023486;28;20103;-70
2023/03/20 04:35:48;;;;;;;19.25;10.20;;;7.60;99.90;;;;;;5037672;28;20037;-70
2023/03/20 04:38:14;;;;;;;24.00;11.35;;;7.60;99.90;;;;;;5024986;28;20088;-70
2023/03/20 04:40:40;;;;;;;19.67;10.20;;;7.60;99.90;;;;;;5014444;28;20037;-70
2023/03/20 04:43:06;;;;;;;18.77;10.52;;;7.60;99.90;;;;;;5038646;28;20079;-71
2023/03/20 04:45:31;;;;;;;22.38;10.65;;;7.60;99.90;;;;;;5035689;28;20504;-70
2023/03/20 04:47:57;;;;;;;23.27;12.00;;;7.60;99.90;;;;;;5044400;28;20033;-70
2023/03/20 04:50:23;;;;;;;20.30;10.70;;;7.60;99.90;;;;;;5025893;28;20040;-70
2023/03/20 04:52:48;;;;;;;27.45;11.85;;;7.50;99.90;;;;;;5008437;28;20045;-69
2023/03/20 04:55:15;;;;;;;22.48;10.82;;;7.60;99.90;;;;;;5033257;28;20056;-69
2023/03/20 04:57:40;;;;;;;22.70;11.60;;;7.50;99.90;;;;;;5034184;28;20088;-69
2023/03/20 05:00:07;;;;;;;23.63;11.32;;;7.50;99.90;;;;;;4996592;28;20188;-70
2023/03/20 05:02:32;;;;;;;26.27;11.10;;;7.60;99.90;;;;;;5039783;28;20057;-69
2023/03/20 05:04:58;;;;;;;26.15;11.98;;;7.60;99.90;;;;;;5042655;28;20060;-69
2023/03/20 05:07:24;;;;;;;26.05;12.77;;;7.50;99.90;;;;;;5036755;28;20037;-69
2023/03/20 05:09:49;;;;;;;25.25;13.35;;;7.50;99.90;;;;;;5043073;28;20634;-70
2023/03/20 05:12:15;;;;;;;23.75;12.13;;;7.50;99.90;;;;;;5032772;28;20044;-70
2023/03/20 05:14:41;;;;;;;25.60;13.52;;;7.40;99.90;;;;;;5043333;28;20045;-71
2023/03/20 05:17:07;;;;;;;22.25;12.30;;;7.50;99.90;;;;;;5037559;28;20072;-71
2023/03/20 05:19:32;;;;;;;32.47;16.00;;;7.60;99.90;;;;;;5036089;28;20037;-71
2023/03/20 05:21:58;;;;;;;25.45;13.07;;;7.50;99.90;;;;;;5018717;28;20049;-71
2023/03/20 05:24:24;;;;;;;31.42;14.63;;;7.50;99.90;;;;;;5021729;28;20559;-69
2023/03/20 05:26:49;;;;;;;29.80;14.80;;;7.50;99.90;;;;;;5023492;28;20057;-70
2023/03/20 05:29:15;;;;;;;30.27;13.93;;;7.50;99.90;;;;;;5044342;28;20045;-70
2023/03/20 05:31:41;;;;;;;26.15;14.35;;;7.50;99.90;;;;;;5037030;28;20049;-70
2023/03/20 05:34:06;;;;;;;30.05;15.50;;;7.50;99.90;;;;;;5038122;28;20532;-71
2023/03/20 05:36:32;;;;;;;27.83;14.95;;;7.40;99.90;;;;;;5018936;28;20053;-71
2023/03/20 05:38:58;;;;;;;29.42;15.00;;;7.50;99.90;;;;;;5040690;28;20053;-71
2023/03/20 05:41:23;;;;;;;28.73;15.55;;;7.50;99.90;;;;;;5044084;28;20059;-70
2023/03/20 05:43:49;;;;;;;31.92;14.85;;;7.50;99.90;;;;;;5037994;28;20040;-70
2023/03/20 05:46:15;;;;;;;23.85;13.27;;;7.40;99.90;;;;;;5022996;28;20172;-70
2023/03/20 05:48:40;;;;;;;34.95;15.55;;;7.50;99.90;;;;;;5036126;28;20092;-70
2023/03/20 05:51:06;;;;;;;28.80;15.73;;;7.50;99.90;;;;;;5025587;28;20041;-71
2023/03/20 05:53:32;;;;;;;32.33;14.80;;;7.40;99.90;;;;;;5039441;28;20053;-70
2023/03/20 05:55:57;;;;;;;25.75;14.57;;;7.50;99.90;;;;;;5037156;28;20041;-71
2023/03/20 05:58:23;;;;;;;33.30;15.32;;;7.50;99.90;;;;;;5038246;28;20046;-71
2023/03/20 06:00:49;;;;;;;29.52;14.30;;;7.40;99.90;;;;;;4988979;28;20052;-71
2023/03/20 06:03:15;;;;;;;30.25;15.65;;;7.50;99.90;;;;;;5016978;28;20056;-71
2023/03/20 06:05:41;;;;;;;29.00;14.77;;;7.40;99.90;;;;;;5008613;28;20049;-70
2023/03/20 06:08:06;;;;;;;32.55;16.25;;;7.50;99.90;;;;;;5034342;28;20098;-70
2023/03/20 06:10:32;;;;;;;27.33;15.05;;;7.50;99.90;;;;;;5033564;28;20106;-70
2023/03/20 06:12:59;;;;;;;28.55;15.50;;;7.50;99.90;;;;;;5040360;28;20451;-71
2023/03/20 06:15:27;;;;;;;38.80;16.60;;;7.50;99.90;;;;;;5035633;28;20228;-70
2023/03/20 06:17:53;;;;;;;35.35;15.20;;;7.50;99.90;;;;;;5033962;28;20045;-71
2023/03/20 06:20:19;;;;;;;32.53;15.85;;;7.50;99.90;;;;;;5016736;28;20049;-71
2023/03/20 06:22:45;;;;;;;28.40;14.73;;;7.50;99.90;;;;;;5035393;28;20066;-72
2023/03/20 06:25:11;;;;;;;31.05;15.35;;;7.50;99.90;;;;;;5033402;28;20045;-71
2023/03/20 06:27:37;;;;;;;33.95;15.32;;;7.50;99.90;;;;;;5036146;28;20525;-71
2023/03/20 06:30:03;;;;;;;32.30;16.63;;;7.50;99.90;;;;;;5035578;28;20069;-70
2023/03/20 06:32:29;;;;;;;27.00;14.10;;;7.50;99.90;;;;;;5034763;28;20088;-70
2023/03/20 06:34:54;;;;;;;26.17;13.52;;;7.50;99.90;;;;;;5037983;28;20061;-72
2023/03/20 06:37:20;;;;;;;26.38;13.98;;;7.50;99.90;;;;;;5017172;28;20037;-70
2023/03/20 06:39:46;;;;;;;28.23;13.25;;;7.50;99.90;;;;;;5038503;28;20049;-67
2023/03/20 06:42:12;;;;;;;28.48;14.20;;;7.50;99.90;;;;;;5038695;28;20045;-71
2023/03/20 06:44:38;;;;;;;25.63;13.70;;;7.50;99.90;;;;;;5035152;28;20053;-71
2023/03/20 06:47:04;;;;;;;25.67;13.55;;;7.60;99.90;;;;;;5037219;28;20049;-71
2023/03/20 06:49:30;;;;;;;27.25;15.00;;;7.60;99.90;;;;;;5038867;28;20504;-69
2023/03/20 06:51:56;;;;;;;27.63;13.35;;;7.70;99.90;;;;;;5036367;28;20048;-71
2023/03/20 06:54:22;;;;;;;25.88;14.18;;;7.70;99.90;;;;;;5044334;28;20044;-68
2023/03/20 06:56:48;;;;;;;26.48;14.20;;;7.70;99.90;;;;;;4996422;28;20049;-69
2023/03/20 06:59:14;;;;;;;25.75;12.57;;;7.80;99.90;;;;;;5024913;28;20073;-69
2023/03/20 07:01:39;;;;;;;25.90;13.80;;;7.70;99.90;;;;;;4955182;28;20057;-68
2023/03/20 07:04:05;;;;;;;21.65;13.43;;;7.80;99.90;;;;;;5041512;28;20123;-70
2023/03/20 07:06:32;;;;;;;34.58;14.38;;;7.80;99.90;;;;;;5044145;28;20049;-70
2023/03/20 07:08:57;;;;;;;28.55;15.32;;;7.90;99.90;;;;;;5042998;28;20119;-69
2023/03/20 07:11:23;;;;;;;22.73;11.20;;;7.90;99.90;;;;;;5042894;28;20120;-69
2023/03/20 07:13:49;;;;;;;27.95;14.35;;;7.90;99.90;;;;;;5035573;28;20182;-67
2023/03/20 07:16:16;;;;;;;23.70;13.50;;;7.90;99.90;;;;;;5023265;28;20139;-68
2023/03/20 07:18:42;;;;;;;25.73;12.13;;;7.90;99.90;;;;;;5025558;28;20132;-67
2023/03/20 07:21:08;;;;;;;24.42;14.00;;;8.00;99.90;;;;;;5007959;28;20132;-69
2023/03/20 07:23:34;;;;;;;30.40;14.93;;;8.00;99.90;;;;;;5039680;28;20045;-70
2023/03/20 07:25:59;;;;;;;26.98;14.68;;;8.00;99.90;;;;;;5037395;28;20504;-68
2023/03/20 07:28:25;;;;;;;25.15;14.15;;;8.10;99.90;;;;;;5038201;28;20041;-70
2023/03/20 07:30:51;;;;;;;32.13;13.68;;;8.10;99.90;;;;;;5043223;28;20113;-69
2023/03/20 07:33:17;;;;;;;21.83;12.43;;;8.10;99.90;;;;;;5019619;28;20045;-70
2023/03/20 07:35:43;;;;;;;25.52;12.40;;;8.20;99.90;;;;;;5039867;28;20072;-70
2023/03/20 07:38:09;;;;;;;23.60;13.73;;;8.20;99.90;;;;;;5040185;28;20484;-71
2023/03/20 07:40:34;;;;;;;25.83;12.55;;;8.20;99.90;;;;;;5026453;28;20062;-71
2023/03/20 07:43:00;;;;;;;30.00;13.80;;;8.20;99.90;;;;;;5020407;28;20149;-71
2023/03/20 07:45:26;;;;;;;22.05;12.27;;;8.20;99.90;;;;;;5039513;28;20457;-71
2023/03/20 07:47:51;;;;;;;29.33;14.13;;;8.20;99.90;;;;;;5040990;28;20061;-71
2023/03/20 07:50:17;;;;;;;24.10;13.18;;;8.20;99.90;;;;;;5040940;28;20049;-71
2023/03/20 07:52:52;;;;;;;24.40;13.38;;;8.20;99.90;;;;;;5044289;28;20045;-71
2023/03/20 07:55:18;;;;;;;25.90;14.38;;;8.30;99.90;;;;;;5021554;28;20045;-71
2023/03/20 07:57:43;;;;;;;28.10;15.40;;;8.30;99.90;;;;;;5041295;28;20135;-71
2023/03/20 08:00:10;;;;;;;25.40;14.32;;;8.30;99.90;;;;;;5012153;28;20391;-72
2023/03/20 08:02:36;;;;;;;24.55;13.02;;;8.40;99.90;;;;;;5011399;28;20063;-72
2023/03/20 08:05:02;;;;;;;30.08;13.02;;;8.40;99.90;;;;;;5025176;28;20460;-72
2023/03/20 08:07:30;;;;;;;26.50;13.32;;;8.40;99.90;;;;;;5040712;28;20047;-72
2023/03/20 08:09:56;;;;;;;24.83;12.38;;;8.40;99.90;;;;;;5026863;28;20036;-72
2023/03/20 08:12:21;;;;;;;28.00;12.30;;;8.50;99.90;;;;;;5040577;28;20041;-73
2023/03/20 08:14:47;;;;;;;21.48;12.57;;;8.50;99.90;;;;;;5025392;28;20083;-73
2023/03/20 08:17:13;;;;;;;22.63;10.95;;;8.50;99.90;;;;;;5020739;28;20107;-77
2023/03/20 08:19:39;;;;;;;22.80;12.20;;;8.50;99.90;;;;;;5040640;28;20045;-75
2023/03/20 08:22:05;;;;;;;23.25;12.82;;;8.60;99.90;;;;;;5026194;28;20040;-76
2023/03/20 08:24:31;;;;;;;25.35;13.07;;;8.60;99.90;;;;;;5034669;28;20069;-75
2023/03/20 08:26:56;;;;;;;27.52;11.73;;;8.60;99.90;;;;;;5041404;28;20120;-77
2023/03/20 08:50:22;;;;;;;23.38;13.57;;;8.80;99.90;;;;;;5061990;27;20363;-82
2023/03/20 08:52:48;;;;;;;20.75;11.57;;;9.00;99.90;;;;;;5035507;28;20136;-76
2023/03/20 08:55:15;;;;;;;27.67;13.13;;;9.00;99.90;;;;;;5022398;28;20199;-76
2023/03/20 08:57:41;;;;;;;25.05;12.80;;;9.00;99.90;;;;;;5018685;28;20048;-77
2023/03/20 09:00:11;;;;;;;27.42;11.25;;;9.00;99.90;;;;;;5038701;28;20071;-77
2023/03/20 09:02:37;;;;;;;17.63;10.52;;;9.10;99.90;;;;;;5040220;28;20493;-77
2023/03/20 09:05:03;;;;;;;22.42;12.10;;;9.20;99.90;;;;;;5029967;28;20051;-77
2023/03/20 09:07:29;;;;;;;21.05;10.57;;;9.30;99.90;;;;;;5020317;28;20052;-77
2023/03/20 09:09:56;;;;;;;21.50;11.02;;;9.40;99.90;;;;;;5019031;28;20056;-78
2023/03/20 09:12:21;;;;;;;20.98;9.85;;;9.40;99.90;;;;;;5017490;28;20084;-77
2023/03/20 09:14:47;;;;;;;21.77;9.65;;;9.40;99.90;;;;;;5024503;28;20049;-76
2023/03/20 09:17:13;;;;;;;20.90;11.18;;;9.40;99.90;;;;;;5016286;28;20072;-77
2023/03/20 09:19:41;;;;;;;25.73;10.77;;;9.40;99.90;;;;;;5024145;28;20055;-77
2023/03/20 09:22:07;;;;;;;18.60;10.13;;;9.40;99.90;;;;;;5017096;28;20050;-77
2023/03/20 09:24:33;;;;;;;21.25;11.07;;;9.50;99.90;;;;;;5012509;28;20090;-77
2023/03/20 09:26:59;;;;;;;20.60;9.07;;;9.60;99.90;;;;;;5015271;28;20678;-78
2023/03/20 09:29:26;;;;;;;22.98;11.55;;;9.70;99.90;;;;;;5015798;28;20080;-76
2023/03/20 09:31:52;;;;;;;20.58;10.75;;;9.60;99.90;;;;;;5017306;28;20153;-76
2023/03/20 09:34:18;;;;;;;22.60;11.95;;;9.60;99.90;;;;;;5013077;28;20041;-77
2023/03/20 09:36:44;;;;;;;23.63;10.68;;;9.70;99.90;;;;;;5016899;28;20050;-77
2023/03/20 09:39:09;;;;;;;19.27;9.40;;;9.70;99.90;;;;;;4996800;28;20043;-75
2023/03/20 09:41:36;;;;;;;23.33;11.57;;;9.70;99.90;;;;;;5002832;28;20088;-77
2023/03/20 09:44:29;;;;;;;24.33;10.90;;;9.70;99.90;;;;;;4995372;28;20042;-77
2023/03/20 09:47:33;;;;;;;22.03;10.80;;;9.70;99.90;;;;;;4995855;28;20050;-77
2023/03/20 09:50:13;;;;;;;18.08;8.60;;;9.60;99.90;;;;;;5009937;28;20293;-77
2023/03/20 09:52:47;;;;;;;22.50;8.88;;;9.60;99.90;;;;;;4990295;28;20429;-77
2023/03/20 09:55:15;;;;;;;24.65;9.77;;;9.60;99.90;;;;;;4982948;28;20042;-77
2023/03/20 09:57:45;;;;;;;24.30;10.30;;;9.60;99.90;;;;;;4983564;28;20589;-77
2023/03/20 10:00:19;;;;;;;25.23;9.20;;;9.70;99.90;;;;;;4984976;28;20694;-77
2023/03/20 10:03:01;;;;;;;17.75;9.60;;;9.60;99.90;;;;;;4988551;28;20042;-77
2023/03/20 10:05:46;;;;;;;22.52;9.15;;;9.60;99.90;;;;;;4989467;28;20428;-76
2023/03/20 10:08:15;;;;;;;19.02;9.30;;;9.60;99.90;;;;;;4985373;28;20150;-76
2023/03/20 10:11:23;;;;;;;21.75;9.25;;;9.50;99.90;;;;;;4996569;28;20038;-78
2023/03/20 10:14:06;;;;;;;23.20;9.55;;;9.50;99.90;;;;;;4985510;28;20054;-79
2023/03/20 10:16:53;;;;;;;22.23;8.75;;;9.40;99.90;;;;;;4995429;28;20069;-78
2023/03/20 10:19:28;;;;;;;19.80;8.02;;;9.40;99.90;;;;;;4988237;28;20125;-77
2023/03/20 10:22:24;;;;;;;18.27;8.75;;;9.40;99.90;;;;;;4977480;28;20054;-77
2023/03/20 10:25:18;;;;;;;25.92;10.32;;;9.50;99.90;;;;;;4978659;28;20046;-79
2023/03/20 10:27:59;;;;;;;17.80;6.90;;;9.50;99.90;;;;;;4982438;28;20062;-78
2023/03/20 10:31:03;;;;;;;11.48;6.07;;;9.40;99.90;;;;;;4986095;28;20046;-78
2023/03/20 10:33:56;;;;;;;15.20;6.45;;;9.50;99.90;;;;;;5010170;28;20049;-79
2023/03/20 10:36:24;;;;;;;20.13;7.10;;;9.40;99.90;;;;;;4985496;28;20502;-79
2023/03/20 10:39:08;;;;;;;16.27;6.63;;;9.40;99.90;;;;;;4990444;28;20042;-78
2023/03/20 10:41:37;;;;;;;25.70;8.43;;;9.50;99.90;;;;;;5015127;28;20042;-77
2023/03/20 10:44:08;;;;;;;20.77;7.90;;;9.50;99.90;;;;;;4983428;28;20425;-77
2023/03/20 10:46:52;;;;;;;17.55;6.55;;;9.50;99.90;;;;;;4990598;28;20497;-77
2023/03/20 10:49:28;;;;;;;20.35;6.95;;;9.50;99.90;;;;;;4986708;28;20042;-76
2023/03/20 10:52:00;;;;;;;13.88;5.65;;;9.60;99.90;;;;;;5018542;28;20079;-78
2023/03/20 10:54:40;;;;;;;18.75;7.45;;;9.50;99.90;;;;;;5035359;28;20038;-79
2023/03/20 10:57:14;;;;;;;16.63;7.28;;;9.50;99.90;;;;;;4983243;28;20126;-79
2023/03/20 10:59:41;;;;;;;15.27;6.70;;;9.50;99.90;;;;;;4989344;28;20050;-77
2023/03/20 11:02:15;;;;;;;19.98;7.50;;;9.50;99.90;;;;;;4980318;28;20550;-77
2023/03/20 11:04:40;;;;;;;25.90;8.45;;;9.60;99.90;;;;;;4986219;28;20041;-77
2023/03/20 11:07:15;;;;;;;25.48;9.00;;;9.70;99.90;;;;;;4985278;28;20093;-77
2023/03/20 11:09:41;;;;;;;22.73;7.22;;;9.70;99.90;;;;;;4985563;28;20096;-77
2023/03/20 11:12:18;;;;;;;20.25;9.38;;;9.70;99.90;;;;;;4985053;28;20054;-77
2023/03/20 11:14:44;;;;;;;19.77;7.80;;;9.60;99.90;;;;;;4980300;28;20122;-77
2023/03/20 11:17:11;;;;;;;17.85;8.57;;;9.50;99.90;;;;;;4981335;28;20935;-79
2023/03/20 11:19:39;;;;;;;33.55;10.05;;;9.40;99.90;;;;;;4985751;28;20393;-76
2023/03/20 11:22:23;;;;;;;23.08;10.23;;;9.30;99.90;;;;;;4994880;28;20049;-76
2023/03/20 11:24:55;;;;;;;19.55;9.13;;;9.20;99.90;;;;;;5014865;28;20038;-76
2023/03/20 11:27:31;;;;;;;23.58;10.50;;;9.10;99.90;;;;;;5023518;28;22812;-76
2023/03/20 11:30:01;;;;;;;25.92;10.13;;;9.10;99.90;;;;;;4992628;28;20054;-75
2023/03/20 11:32:30;;;;;;;27.70;11.90;;;9.10;99.90;;;;;;4989505;28;20039;-75
2023/03/20 11:35:08;;;;;;;28.10;12.48;;;9.00;99.90;;;;;;4986656;28;20133;-76
2023/03/20 11:37:43;;;;;;;28.92;13.50;;;9.00;99.90;;;;;;5025219;28;20062;-76
2023/03/20 11:40:20;;;;;;;27.53;11.70;;;9.00;99.90;;;;;;4999610;28;20073;-75
2023/03/20 11:42:55;;;;;;;26.90;11.50;;;9.00;99.90;;;;;;4972243;28;20494;-75
2023/03/20 11:45:21;;;;;;;24.60;13.48;;;9.00;99.90;;;;;;5002546;28;20065;-77
2023/03/20 11:47:52;;;;;;;27.42;13.85;;;8.90;99.90;;;;;;4976259;28;20464;-73
2023/03/20 11:50:33;;;;;;;28.30;13.57;;;8.90;99.90;;;;;;5011874;28;20062;-73
2023/03/20 11:53:01;;;;;;;19.98;12.07;;;8.90;99.90;;;;;;4980492;28;20053;-72
2023/03/20 11:55:30;;;;;;;26.20;12.85;;;9.00;99.90;;;;;;4984120;28;20134;-73
2023/03/20 11:57:59;;;;;;;21.13;12.07;;;9.00;99.90;;;;;;4981809;28;20042;-73
2023/03/20 12:00:35;;;;;;;18.73;11.02;;;8.90;99.90;;;;;;4991070;28;20106;-72
2023/03/20 12:03:01;;;;;;;22.65;12.00;;;8.90;99.90;;;;;;4991153;28;20101;-73
2023/03/20 12:05:35;;;;;;;19.27;11.52;;;8.90;99.90;;;;;;4980288;28;20050;-73
2023/03/20 12:08:21;;;;;;;24.83;13.50;;;8.90;99.90;;;;;;4993679;28;20042;-72
2023/03/20 12:10:57;;;;;;;20.75;12.15;;;8.90;99.90;;;;;;4983201;28;20050;-71
2023/03/20 12:13:34;;;;;;;24.73;14.27;;;8.80;99.90;;;;;;4985065;28;20125;-72
2023/03/20 12:16:12;;;;;;;28.35;15.98;;;8.70;99.90;;;;;;4978638;28;20056;-72
2023/03/20 12:18:45;;;;;;;23.20;14.70;;;8.80;99.90;;;;;;4979748;28;20125;-72
2023/03/20 12:21:14;;;;;;;;;;;8.70;99.90;;;;;;4981091;28;20078;-72
2023/03/20 12:23:51;;;;;;;26.50;16.23;;;8.80;99.90;;;;;;5003364;28;19921;-74
2023/03/20 12:26:24;;;;;;;26.85;15.32;;;8.70;99.90;;;;;;4986420;28;20166;-73
2023/03/20 12:29:15;;;;;;;38.80;19.98;;;8.90;99.90;;;;;;4976544;28;20061;-73
2023/03/20 12:31:47;;;;;;;16.63;11.75;;;8.90;99.90;;;;;;4999419;28;20049;-72
2023/03/20 12:34:37;;;;;;;17.70;11.13;;;8.80;99.90;;;;;;5014689;28;20053;-72
2023/03/20 12:37:02;;;;;;;19.15;14.02;;;8.90;99.90;;;;;;4975787;28;20047;-73
2023/03/20 12:39:40;;;;;;;16.70;12.13;;;8.90;99.90;;;;;;4986011;28;20556;-72
2023/03/20 12:42:24;;;;;;;21.45;13.63;;;8.90;99.90;;;;;;4986392;28;20046;-72
2023/03/20 12:45:20;;;;;;;24.90;15.57;;;9.00;99.90;;;;;;5011216;28;20046;-72
2023/03/20 12:48:36;;;;;;;25.08;15.15;;;9.00;99.90;;;;;;4929951;28;20056;-73
2023/03/20 12:51:02;;;;;;;37.33;18.60;;;9.10;99.90;;;;;;4949864;28;20054;-73
2023/03/20 12:53:34;;;;;;;34.20;16.65;;;9.10;99.90;;;;;;4995640;28;20081;-73
2023/03/20 12:56:24;;;;;;;35.53;18.10;;;9.10;99.90;;;;;;5004854;28;20050;-73
2023/03/20 12:58:56;;;;;;;34.67;17.98;;;9.10;99.90;;;;;;4975121;28;20049;-74
2023/03/20 13:01:30;;;;;;;33.90;18.13;;;9.10;99.90;;;;;;4987836;28;20108;-74
2023/03/20 13:04:38;;;;;;;24.80;13.82;;;9.10;99.90;;;;;;4982842;28;20038;-72
2023/03/20 13:07:33;;;;;;;25.27;14.95;;;9.10;99.90;;;;;;4978262;28;20042;-73
2023/03/20 13:10:08;;;;;;;24.23;15.40;;;9.10;99.90;;;;;;4975896;28;20046;-73
2023/03/20 13:12:52;;;;;;;20.65;12.77;;;9.10;99.90;;;;;;4985860;28;20465;-74
2023/03/20 13:15:36;;;;;;;19.02;14.00;;;9.10;99.90;;;;;;4998977;28;20062;-74
2023/03/20 13:18:20;;;;;;;17.23;11.50;;;9.10;99.90;;;;;;4981644;28;20042;-74
2023/03/20 13:21:01;;;;;;;20.13;12.02;;;9.00;99.90;;;;;;4990673;28;20046;-74
2023/03/20 13:23:40;;;;;;;14.38;11.48;;;9.00;99.90;;;;;;4988896;28;20053;-74